»·PEaware :: SWA461 KSMF-KSEA

SWA461 :: KSMF-KSEA

FLIGHT INFORMATION

Flight Status: Arrived
Operator:
Southwest Airlines
More flights by this operator :: More flights under this callsign
Pilot: Steve F. (26981)
Aircraft: BOEING 737-900
(B739)
More flights by this aircraft type
Origin: KSMF Sacramento Intl
United States
Destination: KSEA Seattle-Tacoma Intl
United States
More flights between these airports :: More routes between these airports
Route: RBL LMT HAWKZ7
File this flight plan on PilotEdge
Remarks:
Altitude:
(Current/Filed)
38,000ft
Speed:
(Current/Filed)
430kts
Departed: 20-Jun-23 02:21 PM
Arrived: 20-Jun-23 03:34 PM
Distance/Time
Traveled:
526nm/1:12
Distance/Time
To Go:
Arrived

Flight Plot

Page will automatically refresh every two minutes.

Flight plan parsing failed; only flown route is shown


Map Options




Map Legend


Flown Route
Filed Route
Departure Airport
Arrival Airport
Navaid (VOR, NDB)
Fix

Horizontal Profiles

Position Reports

Time Latitude Longitude Heading Altitude Ground
Speed
20-Jun-23 14:00 38.695267 -121.593994 358 35ft 0kts
20-Jun-23 14:01 38.695267 -121.593994 358 35ft 0kts
20-Jun-23 14:02 38.695267 -121.593994 358 35ft 0kts
20-Jun-23 14:03 38.695267 -121.593994 358 35ft 0kts
20-Jun-23 14:04 38.695267 -121.593994 358 35ft 0kts
20-Jun-23 14:05 38.695267 -121.593994 358 35ft 0kts
20-Jun-23 14:06 38.695267 -121.593994 358 35ft 0kts
20-Jun-23 14:06 38.695267 -121.593994 358 35ft 0kts
20-Jun-23 14:07 38.695267 -121.593994 358 35ft 0kts
20-Jun-23 14:09 38.695267 -121.593994 358 35ft 0kts
20-Jun-23 14:10 38.695267 -121.593994 358 35ft 0kts
20-Jun-23 14:11 38.695267 -121.593994 358 35ft 0kts
20-Jun-23 14:11 38.695260 -121.593994 358 35ft 1kts
20-Jun-23 14:12 38.694633 -121.593902 303 35ft 2kts
20-Jun-23 14:13 38.694630 -121.593757 250 35ft 0kts
20-Jun-23 14:15 38.694620 -121.593793 252 35ft 2kts
20-Jun-23 14:16 38.694679 -121.595937 269 35ft 10kts
20-Jun-23 14:16 38.695532 -121.598642 0 35ft 14kts
20-Jun-23 14:17 38.700212 -121.598587 0 35ft 23kts
20-Jun-23 14:18 38.706638 -121.598488 1 35ft 16kts
20-Jun-23 14:19 38.707184 -121.600978 235 35ft 7kts
20-Jun-23 14:21 38.671026 -121.603932 204 1171ft 194kts
20-Jun-23 14:21 38.671709 -121.655900 325 3342ft 234kts
20-Jun-23 14:22 38.744032 -121.648843 356 6307ft 282kts
20-Jun-23 14:23 38.818418 -121.676680 340 10111ft 279kts
20-Jun-23 14:24 38.894503 -121.708019 338 12840ft 308kts
20-Jun-23 14:25 38.985578 -121.748715 338 14211ft 374kts
20-Jun-23 14:26 39.086014 -121.792443 337 16914ft 388kts
20-Jun-23 14:27 39.190347 -121.837356 336 19304ft 402kts
20-Jun-23 14:28 39.297934 -121.883987 336 21332ft 416kts
20-Jun-23 14:29 39.409358 -121.932483 335 23071ft 428kts
20-Jun-23 14:30 39.523597 -121.982377 335 24586ft 438kts
20-Jun-23 14:31 39.640548 -122.033643 335 25945ft 446kts
20-Jun-23 14:32 39.759121 -122.085803 335 27119ft 454kts
20-Jun-23 14:33 39.879720 -122.138884 335 28120ft 460kts
20-Jun-23 14:34 40.000213 -122.192394 335 29456ft 456kts
20-Jun-23 14:35 40.124177 -122.227055 357 30543ft 473kts
20-Jun-23 14:36 40.255387 -122.199144 5 31472ft 481kts
20-Jun-23 14:37 40.386738 -122.166895 4 32354ft 481kts
20-Jun-23 14:38 40.517961 -122.135112 4 33181ft 480kts
20-Jun-23 14:39 40.649252 -122.103188 5 33993ft 479kts
20-Jun-23 14:40 40.780262 -122.071166 5 34777ft 477kts
20-Jun-23 14:41 40.910143 -122.039284 5 35476ft 475kts
20-Jun-23 14:42 41.040028 -122.007272 6 36107ft 474kts
20-Jun-23 14:43 41.170279 -121.975041 6 36410ft 480kts
20-Jun-23 14:44 41.301247 -121.942503 6 37029ft 477kts
20-Jun-23 14:45 41.431409 -121.910031 6 37509ft 477kts
20-Jun-23 14:46 41.561811 -121.877366 7 37991ft 476kts
20-Jun-23 14:47 41.691811 -121.844667 7 38227ft 476kts
20-Jun-23 14:48 41.821317 -121.811959 7 38235ft 474kts
20-Jun-23 14:49 41.951115 -121.779138 7 38233ft 474kts
20-Jun-23 14:50 42.080338 -121.746154 7 38230ft 474kts
20-Jun-23 14:51 42.210063 -121.740031 348 38230ft 465kts
20-Jun-23 14:52 42.337560 -121.769269 347 38231ft 464kts
20-Jun-23 14:53 42.464704 -121.798485 347 38234ft 465kts
20-Jun-23 14:54 42.592548 -121.827628 347 38238ft 465kts
20-Jun-23 14:55 42.719915 -121.856879 347 38246ft 465kts
20-Jun-23 14:56 42.847713 -121.886377 347 38250ft 465kts
20-Jun-23 14:57 42.975075 -121.915905 348 38253ft 465kts
20-Jun-23 14:58 43.317424 -121.995888 348 38260ft 463kts
20-Jun-23 14:59 43.821150 -122.115262 349 38269ft 461kts
20-Jun-23 15:00 44.326065 -122.236947 349 38266ft 459kts
20-Jun-23 15:01 44.828571 -122.360237 350 38275ft 456kts
20-Jun-23 15:02 45.207667 -122.454704 351 35143ft 453kts
20-Jun-23 15:03 45.445614 -122.514743 354 29747ft 415kts
20-Jun-23 15:04 45.655234 -122.567849 353 25098ft 388kts
20-Jun-23 15:05 45.762145 -122.595157 353 24373ft 390kts
20-Jun-23 15:06 45.868657 -122.621259 353 23773ft 388kts
20-Jun-23 15:07 45.974715 -122.647625 353 23137ft 386kts
20-Jun-23 15:08 46.080647 -122.674044 353 22252ft 384kts
20-Jun-23 15:09 46.181341 -122.694750 354 20749ft 351kts
20-Jun-23 15:10 46.275399 -122.713279 354 19242ft 333kts
20-Jun-23 15:11 46.367214 -122.724840 0 17778ft 331kts
20-Jun-23 15:12 46.458540 -122.727287 359 16579ft 326kts
20-Jun-23 15:13 46.549002 -122.730380 359 15564ft 324kts
20-Jun-23 15:14 46.638055 -122.733591 359 14565ft 319kts
20-Jun-23 15:15 46.725972 -122.736828 359 13563ft 313kts
20-Jun-23 15:16 46.807044 -122.713319 34 12664ft 290kts
20-Jun-23 15:17 46.868271 -122.640207 35 12347ft 287kts
20-Jun-23 15:18 46.932164 -122.569924 29 12146ft 285kts
20-Jun-23 15:19 47.006600 -122.531838 15 11533ft 283kts
20-Jun-23 15:20 47.082141 -122.500034 10 10883ft 283kts
20-Jun-23 15:21 47.160154 -122.485520 6 10281ft 282kts
20-Jun-23 15:22 47.236788 -122.472922 5 9480ft 265kts
20-Jun-23 15:23 47.306893 -122.462273 4 8601ft 244kts
20-Jun-23 15:24 47.376166 -122.454126 358 7692ft 249kts
20-Jun-23 15:25 47.442955 -122.455593 359 6856ft 236kts
20-Jun-23 15:26 47.508398 -122.455354 358 6031ft 233kts
20-Jun-23 15:27 47.573692 -122.453224 8 4889ft 234kts
20-Jun-23 15:28 47.612640 -122.391513 89 3749ft 205kts
20-Jun-23 15:29 47.589936 -122.326982 147 2853ft 174kts
20-Jun-23 15:30 47.543052 -122.315952 183 1969ft 164kts
20-Jun-23 15:31 47.502180 -122.317568 180 1176ft 145kts
20-Jun-23 15:32 47.461528 -122.317898 181 445ft 138kts
20-Jun-23 15:33 47.444716 -122.316618 149 441ft 23kts
20-Jun-23 15:34 47.440778 -122.310465 144 441ft 19kts
20-Jun-23 15:35 47.439681 -122.305343 90 441ft 14kts
20-Jun-23 15:36 47.440241 -122.303710 357 441ft 0kts

Navigation Log

Ident Type
Flight plan parsing failed, navigation log unavailable